Fecha, hora, temperatura, viento dirección y velocidad, humedad y presión.

  • 23-08-2019 14:00:00 | 30.20°C | Sudeste |10.00 km/h | 29.00% | 953.00 hPa
  • 23-08-2019 13:00:00 | 28.90°C | Sur |6.00 km/h | 32.00% | 953.70 hPa
  • 23-08-2019 12:00:00 | 27.30°C | Sur |9.00 km/h | 34.00% | 954.10 hPa
  • 23-08-2019 11:00:00 | 24.30°C | Norte |4.00 km/h | 42.00% | 954.40 hPa
  • 23-08-2019 10:00:00 | 20.60°C | Norte |5.00 km/h | 46.00% | 954.50 hPa
  • 23-08-2019 09:00:00 | 18.00°C | Norte |5.00 km/h | 47.00% | 954.50 hPa
  • 23-08-2019 08:00:00 | 16.00°C | Norte |6.00 km/h | 53.00% | 954.30 hPa
  • 23-08-2019 07:00:00 | 16.50°C | Norte |5.00 km/h | 53.00% | 953.80 hPa
  • 23-08-2019 06:00:00 | 17.90°C | Norte |8.00 km/h | 48.00% | 953.70 hPa
  • 23-08-2019 05:00:00 | 18.50°C | Norte |6.00 km/h | 54.00% | 953.60 hPa
  • 23-08-2019 04:00:00 | 19.30°C | Noroeste |8.00 km/h | 54.00% | 953.10 hPa
  • 23-08-2019 03:00:00 | 19.60°C | Noroeste |8.00 km/h | 46.00% | 952.80 hPa
  • 23-08-2019 02:00:00 | 20.30°C | Nordeste |5.00 km/h | 40.00% | 952.70 hPa
  • 23-08-2019 01:00:00 | 20.60°C | Noroeste |6.00 km/h | 49.00% | 952.40 hPa
  • 23-08-2019 00:00:00 | 22.40°C | Norte |6.00 km/h | 41.00% | 951.80 hPa
  • 22-08-2019 23:00:00 | 25.60°C | Sudeste |9.00 km/h | 27.00% | 951.70 hPa
  • 22-08-2019 22:00:00 | 25.90°C | Sudeste |5.00 km/h | 26.00% | 951.40 hPa
  • 22-08-2019 21:00:00 | 29.40°C | Sur |8.00 km/h | 21.00% | 951.20 hPa
  • 22-08-2019 20:00:00 | 31.50°C | Sur |7.00 km/h | 18.00% | 950.80 hPa
  • 22-08-2019 19:00:00 | 32.60°C | Sur |4.00 km/h | 17.00% | 950.70 hPa
  • 22-08-2019 18:00:00 | 32.80°C | Sudeste |10.00 km/h | 14.00% | 951.00 hPa
  • 22-08-2019 17:00:00 | 32.70°C | Este |9.00 km/h | 11.00% | 951.40 hPa
  • 22-08-2019 16:00:00 | 32.00°C | Este |5.00 km/h | 18.00% | 951.90 hPa
  • 22-08-2019 15:00:00 | 30.70°C | Este |8.00 km/h | 19.00% | 952.40 hPa
    • diseño web asturias Información sobre el estado de las mareas, altura de la marejada, temperatura del agua y otros datos de Gijón en Asturias.

      Surf Gijón